createdAt,value
2023-03-06T00:00:23.313Z,0
2023-03-06T00:02:24.919Z,0
2023-03-06T00:04:26.528Z,0
2023-03-06T00:06:27.668Z,0
2023-03-06T00:10:30.679Z,0
2023-03-06T00:12:32.117Z,0
2023-03-06T00:14:33.525Z,0
2023-03-06T00:16:35.059Z,0.842
2023-03-06T00:20:38.083Z,0
2023-03-06T00:22:39.577Z,0
2023-03-06T00:24:40.934Z,0
2023-03-06T00:26:42.417Z,0
2023-03-06T00:28:43.639Z,1.123
2023-03-06T00:30:45.641Z,0
2023-03-06T00:32:46.944Z,2.106
2023-03-06T00:34:48.456Z,1.544
2023-03-06T00:36:50.216Z,0
2023-03-06T00:38:51.691Z,0
2023-03-06T00:42:55.149Z,1.825
2023-03-06T00:44:57.091Z,0
2023-03-06T00:46:59.034Z,0
2023-03-06T00:49:00.391Z,0.842
2023-03-06T00:53:04.001Z,1.825
2023-03-06T00:55:05.078Z,0
2023-03-06T00:57:06.848Z,0
2023-03-06T00:59:07.904Z,1.263
2023-03-06T01:03:10.784Z,0
2023-03-06T01:05:12.146Z,0
2023-03-06T01:07:14.183Z,0
2023-03-06T01:09:15.713Z,0
2023-03-06T01:11:17.169Z,0
2023-03-06T01:13:19.048Z,0
2023-03-06T01:15:20.758Z,0
2023-03-06T01:17:22.237Z,0
2023-03-06T01:19:24.230Z,0
2023-03-06T01:21:25.390Z,0
2023-03-06T01:23:26.615Z,0
2023-03-06T01:25:27.778Z,0
2023-03-06T01:27:29.621Z,0
2023-03-06T01:29:31.504Z,0
2023-03-06T01:31:33.304Z,0
2023-03-06T01:35:36.361Z,0
2023-03-06T01:37:37.746Z,0
2023-03-06T01:39:39.519Z,0
2023-03-06T01:41:40.761Z,0
2023-03-06T01:45:43.267Z,0
2023-03-06T01:46:27.129Z,0
2023-03-06T01:48:28.721Z,0
2023-03-06T01:50:29.794Z,0
2023-03-06T01:52:31.094Z,0
2023-03-06T01:54:32.438Z,0
2023-03-06T01:56:34.157Z,0
2023-03-06T01:58:35.318Z,0
2023-03-06T02:00:36.328Z,0
2023-03-06T02:02:37.814Z,0
2023-03-06T02:04:39.593Z,0
2023-03-06T02:06:41.317Z,0
2023-03-06T02:08:43.084Z,0
2023-03-06T02:10:44.684Z,0
2023-03-06T02:12:46.189Z,0
2023-03-06T02:14:47.410Z,0
2023-03-06T02:16:49.330Z,0
2023-03-06T02:18:50.697Z,0
2023-03-06T02:20:51.940Z,0
2023-03-06T02:22:53.865Z,0
2023-03-06T02:24:55.859Z,0
2023-03-06T02:26:57.698Z,0
2023-03-06T02:28:59.675Z,0
2023-03-06T02:31:01.557Z,0
2023-03-06T02:33:03.046Z,0
2023-03-06T02:35:04.741Z,0
2023-03-06T02:37:05.939Z,0
2023-03-06T02:39:07.363Z,0
2023-03-06T02:41:09.245Z,0
2023-03-06T02:43:10.269Z,0
2023-03-06T02:45:12.066Z,0
2023-03-06T02:47:13.585Z,0
2023-03-06T02:49:15.004Z,0
2023-03-06T02:51:16.763Z,0
2023-03-06T02:53:17.854Z,0
2023-03-06T02:55:19.574Z,0
2023-03-06T02:57:21.543Z,0.421
2023-03-06T02:59:22.819Z,0
2023-03-06T03:01:23.935Z,1.965
2023-03-06T03:03:25.479Z,0
2023-03-06T03:05:26.752Z,2.808
2023-03-06T03:07:28.356Z,0
2023-03-06T03:09:29.514Z,0.14
2023-03-06T03:11:31.169Z,0.561
2023-03-06T03:13:32.964Z,0
2023-03-06T03:15:33.979Z,0.14
2023-03-06T03:17:35.624Z,1.684
2023-03-06T03:21:37.931Z,0
2023-03-06T03:23:39.745Z,0
2023-03-06T03:25:41.484Z,0.421
2023-03-06T03:27:43.330Z,0
2023-03-06T03:29:45.121Z,0
2023-03-06T03:31:46.417Z,0
2023-03-06T03:33:47.858Z,0
2023-03-06T03:35:49.421Z,0
2023-03-06T03:37:51.188Z,0
2023-03-06T03:39:52.377Z,0
2023-03-06T03:41:53.824Z,0
2023-03-06T03:43:55.539Z,0
2023-03-06T03:45:56.630Z,0
2023-03-06T03:47:57.721Z,0
2023-03-06T03:49:59.724Z,0
2023-03-06T03:54:01.844Z,0
2023-03-06T03:56:03.723Z,0.842
2023-03-06T03:58:05.047Z,0
2023-03-06T04:00:06.754Z,0
2023-03-06T04:04:09.764Z,0
2023-03-06T04:06:10.921Z,1.123
2023-03-06T04:08:12.162Z,0.421
2023-03-06T04:10:13.320Z,0
2023-03-06T04:12:15.284Z,1.263
2023-03-06T04:14:17.061Z,0
2023-03-06T04:16:18.418Z,0
2023-03-06T04:18:20.031Z,0.28
2023-03-06T04:20:21.170Z,0
2023-03-06T04:22:22.729Z,0
2023-03-06T04:24:23.942Z,2.106
2023-03-06T04:26:25.120Z,0
2023-03-06T04:28:26.525Z,0
2023-03-06T04:30:27.592Z,0
2023-03-06T04:32:29.329Z,0
2023-03-06T04:34:31.161Z,0
2023-03-06T04:36:32.840Z,0
2023-03-06T04:38:34.498Z,0
2023-03-06T04:40:36.466Z,0
2023-03-06T04:42:38.021Z,0
2023-03-06T04:46:40.906Z,0
2023-03-06T04:48:42.416Z,0
2023-03-06T04:50:43.698Z,0
2023-03-06T04:52:45.243Z,0
2023-03-06T04:54:46.776Z,0
2023-03-06T04:56:48.303Z,0
2023-03-06T04:58:49.905Z,0
2023-03-06T05:00:51.473Z,0
2023-03-06T05:02:52.752Z,0
2023-03-06T05:04:54.672Z,0
2023-03-06T05:06:56.447Z,0
2023-03-06T05:08:58.366Z,0
2023-03-06T05:10:59.600Z,0
2023-03-06T05:13:01.609Z,0
2023-03-06T05:15:02.893Z,0
2023-03-06T05:19:06.309Z,0
2023-03-06T05:21:07.832Z,0
2023-03-06T05:23:08.968Z,0
2023-03-06T05:25:10.579Z,0
2023-03-06T05:29:13.693Z,0
2023-03-06T05:31:15.398Z,0
2023-03-06T05:33:16.669Z,0
2023-03-06T05:35:17.902Z,0.842
2023-03-06T05:37:19.114Z,0
2023-03-06T05:39:20.506Z,0
2023-03-06T05:41:21.953Z,0
2023-03-06T05:43:23.218Z,0
2023-03-06T05:45:24.865Z,0
2023-03-06T05:47:26.396Z,0
2023-03-06T05:49:27.722Z,0
2023-03-06T05:51:29.483Z,0
2023-03-06T05:53:30.815Z,0
2023-03-06T05:55:32.775Z,0
2023-03-06T05:57:34.601Z,0
2023-03-06T05:59:35.829Z,0
2023-03-06T06:01:37.092Z,0
2023-03-06T06:03:39.025Z,0
2023-03-06T06:05:40.547Z,0
2023-03-06T06:07:41.635Z,0
2023-03-06T06:09:43.095Z,0
2023-03-06T06:11:44.573Z,0
2023-03-06T06:13:46.271Z,0
2023-03-06T06:15:48.234Z,0
2023-03-06T06:17:50.055Z,0
2023-03-06T06:19:51.166Z,0
2023-03-06T06:21:52.915Z,0
2023-03-06T06:23:54.876Z,0
2023-03-06T06:25:55.991Z,0
2023-03-06T06:27:57.368Z,0
2023-03-06T06:29:59.145Z,0
2023-03-06T06:32:00.690Z,0
2023-03-06T06:34:02.532Z,0
2023-03-06T06:36:04.035Z,0
2023-03-06T06:38:05.600Z,0
2023-03-06T06:40:06.698Z,0
2023-03-06T06:42:28.474Z,0
2023-03-06T06:44:09.352Z,0
2023-03-06T06:46:39.884Z,0.14
2023-03-06T06:48:12.750Z,0
2023-03-06T06:50:14.074Z,0
2023-03-06T06:52:15.072Z,0.842
2023-03-06T06:54:16.197Z,0.28
2023-03-06T06:56:17.922Z,0
2023-03-06T07:00:21.126Z,0
2023-03-06T07:02:22.989Z,0
2023-03-06T07:04:24.563Z,0
2023-03-06T07:06:26.605Z,0
2023-03-06T07:08:27.804Z,0
2023-03-06T07:10:29.565Z,0
2023-03-06T07:12:30.773Z,0
2023-03-06T07:14:32.125Z,0
2023-03-06T07:16:33.252Z,0
2023-03-06T07:18:34.485Z,0
2023-03-06T07:20:36.346Z,1.825
2023-03-06T07:22:50.194Z,1.404
2023-03-06T07:24:39.036Z,0.14
2023-03-06T07:26:40.386Z,0
2023-03-06T07:28:51.821Z,0.982
2023-03-06T07:30:43.838Z,1.123
2023-03-06T07:32:44.929Z,0.702
2023-03-06T07:34:46.865Z,3.369
2023-03-06T07:36:48.237Z,0
2023-03-06T07:38:50.082Z,3.369
2023-03-06T07:42:52.420Z,5.054
2023-03-06T07:44:53.764Z,3.088
2023-03-06T07:46:54.996Z,5.756
2023-03-06T07:48:56.862Z,3.51
2023-03-06T07:52:59.433Z,3.51
2023-03-06T07:55:00.651Z,5.054
2023-03-06T07:57:01.723Z,2.808
2023-03-06T07:59:02.962Z,1.965
2023-03-06T08:01:04.149Z,3.088
2023-03-06T08:05:07.925Z,5.756
2023-03-06T08:07:09.496Z,3.369
2023-03-06T08:09:10.986Z,3.229
2023-03-06T08:11:12.375Z,1.404
2023-03-06T08:13:13.545Z,3.229
2023-03-06T08:15:14.791Z,6.598
2023-03-06T08:17:16.287Z,3.931
2023-03-06T08:19:17.601Z,3.51
2023-03-06T08:21:18.753Z,7.16
2023-03-06T08:25:22.337Z,3.931
2023-03-06T08:27:23.774Z,7.16
2023-03-06T08:29:25.511Z,3.65
2023-03-06T08:31:26.700Z,3.79
2023-03-06T08:32:10.592Z,7.441
2023-03-06T08:34:12.384Z,5.896
2023-03-06T08:36:14.155Z,5.616
2023-03-06T08:38:16.060Z,6.598
2023-03-06T08:40:27.882Z,4.633
2023-03-06T08:42:19.754Z,6.318
2023-03-06T08:44:21.505Z,3.65
2023-03-06T08:46:23.056Z,2.948
2023-03-06T08:48:24.764Z,12.074
2023-03-06T08:50:26.340Z,6.879
2023-03-06T08:52:27.370Z,4.212
2023-03-06T08:54:29.216Z,8.002
2023-03-06T08:56:31.146Z,7.3
2023-03-06T08:58:32.655Z,4.352
2023-03-06T09:02:35.721Z,7.3
2023-03-06T09:04:37.194Z,4.071
2023-03-06T09:06:38.817Z,8.704
2023-03-06T09:08:40.393Z,8.564
2023-03-06T09:10:41.465Z,8.002
2023-03-06T09:12:50.074Z,4.071
2023-03-06T09:14:43.910Z,4.352
2023-03-06T09:16:45.646Z,10.108
2023-03-06T09:18:46.801Z,7.16
2023-03-06T09:20:48.157Z,7.3
2023-03-06T09:22:49.776Z,7.441
2023-03-06T09:24:51.125Z,6.739
2023-03-06T09:26:52.722Z,7.722
2023-03-06T09:28:54.502Z,6.458
2023-03-06T09:30:56.055Z,4.492
2023-03-06T09:32:57.588Z,9.828
2023-03-06T09:34:58.852Z,6.598
2023-03-06T09:37:00.142Z,8.424
2023-03-06T09:39:02.029Z,8.424
2023-03-06T09:41:03.809Z,7.722
2023-03-06T09:43:04.716Z,3.65
2023-03-06T09:45:06.700Z,8.143
2023-03-06T09:47:08.009Z,6.598
2023-03-06T09:49:09.079Z,6.037
2023-03-06T09:51:10.259Z,4.633
2023-03-06T09:53:12.044Z,11.793
2023-03-06T09:55:13.246Z,10.53
2023-03-06T09:57:14.574Z,8.704
2023-03-06T09:59:16.455Z,7.16
2023-03-06T10:01:17.885Z,5.054
2023-03-06T10:03:19.080Z,7.02
2023-03-06T10:05:20.059Z,6.739
2023-03-06T10:07:21.925Z,7.862
2023-03-06T10:09:23.153Z,8.704
2023-03-06T10:11:24.644Z,11.512
2023-03-06T10:13:26.422Z,7.3
2023-03-06T10:15:27.727Z,11.232
2023-03-06T10:17:28.781Z,6.458
2023-03-06T10:19:30.258Z,7.02
2023-03-06T10:21:32.008Z,5.616
2023-03-06T10:23:33.574Z,8.143
2023-03-06T10:25:35.449Z,7.441
2023-03-06T10:27:36.741Z,8.002
2023-03-06T10:29:39.190Z,7.16
2023-03-06T10:31:39.654Z,9.828
2023-03-06T10:33:40.564Z,8.002
2023-03-06T10:35:42.779Z,6.739
2023-03-06T10:37:44.582Z,7.02
2023-03-06T10:39:45.783Z,8.002
2023-03-06T10:43:49.270Z,4.633
2023-03-06T10:45:50.625Z,4.212
2023-03-06T10:47:51.876Z,5.616
2023-03-06T10:49:53.740Z,7.3
2023-03-06T10:53:57.316Z,7.02
2023-03-06T10:55:59.262Z,6.037
2023-03-06T10:58:00.722Z,7.02
2023-03-06T11:00:01.814Z,5.616
2023-03-06T11:02:03.796Z,5.616
2023-03-06T11:04:05.321Z,6.037
2023-03-06T11:06:07.164Z,9.547
2023-03-06T11:08:08.471Z,6.318
2023-03-06T11:10:09.788Z,7.441
2023-03-06T11:12:11.530Z,9.406
2023-03-06T11:14:12.949Z,10.53
2023-03-06T11:16:14.531Z,5.616
2023-03-06T11:18:15.539Z,8.704
2023-03-06T11:20:16.639Z,2.667
2023-03-06T11:22:18.066Z,8.143
2023-03-06T11:26:20.439Z,7.722
2023-03-06T11:28:22.082Z,7.441
2023-03-06T11:30:23.793Z,7.581
2023-03-06T11:32:25.722Z,5.475
2023-03-06T11:36:29.273Z,9.406
2023-03-06T11:38:31.204Z,7.581
2023-03-06T11:40:32.999Z,10.67
2023-03-06T11:42:34.787Z,7.441
2023-03-06T11:44:35.840Z,7.3
2023-03-06T11:46:37.051Z,10.81
2023-03-06T11:48:38.999Z,4.633
2023-03-06T11:50:40.410Z,6.037
2023-03-06T11:52:42.207Z,7.862
2023-03-06T11:54:43.963Z,9.968
2023-03-06T11:56:45.291Z,12.776
2023-03-06T11:58:46.389Z,9.547
2023-03-06T12:00:47.467Z,9.828
2023-03-06T12:02:48.983Z,7.581
2023-03-06T12:04:50.174Z,7.16
2023-03-06T12:08:52.800Z,10.108
2023-03-06T12:10:54.307Z,9.687
2023-03-06T12:12:55.373Z,10.108
2023-03-06T12:14:56.798Z,11.793
2023-03-06T12:18:59.450Z,8.283
2023-03-06T12:21:01.158Z,4.773
2023-03-06T12:23:14.390Z,8.704
2023-03-06T12:25:03.403Z,8.845
2023-03-06T12:27:04.465Z,6.739
2023-03-06T12:29:06.005Z,8.283
2023-03-06T12:31:07.368Z,7.3
2023-03-06T12:33:09.073Z,7.02
2023-03-06T12:35:11.026Z,9.547
2023-03-06T12:37:12.181Z,10.53
2023-03-06T12:39:13.899Z,7.441
2023-03-06T12:41:16.026Z,10.951
2023-03-06T12:43:17.026Z,7.441
2023-03-06T12:45:18.644Z,9.687
2023-03-06T12:47:19.934Z,12.495
2023-03-06T12:51:23.133Z,9.828
2023-03-06T12:53:25.419Z,8.704
2023-03-06T12:55:27.217Z,7.02
2023-03-06T12:57:28.561Z,6.177
2023-03-06T12:59:29.538Z,9.266
2023-03-06T13:01:31.368Z,14.18
2023-03-06T13:03:32.804Z,13.338
2023-03-06T13:05:34.303Z,9.266
2023-03-06T13:07:35.821Z,8.564
2023-03-06T13:09:37.266Z,8.845
2023-03-06T13:11:38.615Z,15.163
2023-03-06T13:13:40.445Z,2.948
2023-03-06T13:15:41.460Z,7.722
2023-03-06T13:17:43.343Z,9.687
2023-03-06T13:19:44.856Z,12.214
2023-03-06T13:21:46.414Z,12.636
2023-03-06T13:23:48.289Z,8.424
2023-03-06T13:25:50.300Z,12.776
2023-03-06T13:27:51.743Z,8.002
2023-03-06T13:29:53.568Z,7.581
2023-03-06T13:31:54.890Z,9.126
2023-03-06T13:33:56.594Z,7.722
2023-03-06T13:35:58.622Z,6.177
2023-03-06T13:37:59.535Z,9.266
2023-03-06T13:40:00.858Z,7.581
2023-03-06T13:42:02.721Z,12.355
2023-03-06T13:44:04.177Z,12.074
2023-03-06T13:46:05.263Z,11.091
2023-03-06T13:48:30.160Z,11.372
2023-03-06T13:50:08.039Z,9.687
2023-03-06T13:52:09.740Z,4.773
2023-03-06T13:54:11.447Z,8.002
2023-03-06T13:56:13.400Z,14.882
2023-03-06T13:58:14.398Z,9.687
2023-03-06T14:00:16.372Z,8.143
2023-03-06T14:02:17.693Z,7.862
2023-03-06T14:04:19.569Z,10.108
2023-03-06T14:06:21.120Z,12.074
2023-03-06T14:08:22.144Z,8.424
2023-03-06T14:10:23.362Z,12.495
2023-03-06T14:12:24.707Z,5.616
2023-03-06T14:14:25.875Z,9.828
2023-03-06T14:16:29.055Z,3.65
2023-03-06T14:18:28.644Z,10.81
2023-03-06T14:20:30.517Z,7.862
2023-03-06T14:22:31.544Z,10.108
2023-03-06T14:24:33.067Z,6.739
2023-03-06T14:26:34.221Z,4.071
2023-03-06T14:28:36.124Z,7.581
2023-03-06T14:32:38.869Z,13.759
2023-03-06T14:34:39.868Z,8.564
2023-03-06T14:36:40.839Z,7.16
2023-03-06T14:38:42.538Z,5.475
2023-03-06T14:42:45.206Z,11.091
2023-03-06T14:44:47.024Z,10.53
2023-03-06T14:46:48.530Z,5.896
2023-03-06T14:48:49.706Z,5.335
2023-03-06T14:50:50.713Z,12.495
2023-03-06T14:52:52.341Z,4.633
2023-03-06T14:54:53.635Z,8.143
2023-03-06T14:56:54.642Z,8.424
2023-03-06T14:58:56.054Z,6.318
2023-03-06T15:00:57.521Z,11.653
2023-03-06T15:02:58.999Z,7.16
2023-03-06T15:05:00.753Z,7.3
2023-03-06T15:07:02.160Z,12.214
2023-03-06T15:09:04.410Z,5.054
2023-03-06T15:11:05.262Z,3.65
2023-03-06T15:15:08.713Z,11.512
2023-03-06T15:17:10.464Z,9.687
2023-03-06T15:19:55.384Z,6.879
2023-03-06T15:21:57.064Z,8.143
2023-03-06T15:23:58.397Z,9.968
2023-03-06T15:25:59.528Z,6.037
2023-03-06T15:28:01.025Z,9.406
2023-03-06T15:30:02.217Z,5.054
2023-03-06T15:32:03.517Z,3.51
2023-03-06T15:34:04.895Z,7.581
2023-03-06T15:36:05.900Z,6.458
2023-03-06T15:38:07.008Z,12.355
2023-03-06T15:40:08.126Z,7.3
2023-03-06T15:42:09.456Z,8.143
2023-03-06T15:44:10.867Z,8.985
2023-03-06T15:46:12.115Z,6.739
2023-03-06T15:48:13.234Z,9.828
2023-03-06T15:50:14.698Z,8.985
2023-03-06T15:52:16.529Z,6.739
2023-03-06T15:54:17.545Z,9.828
2023-03-06T15:56:19.421Z,7.02
2023-03-06T15:58:20.930Z,7.862
2023-03-06T16:00:27.502Z,7.3
2023-03-06T16:02:23.508Z,4.212
2023-03-06T16:04:24.567Z,5.616
2023-03-06T16:06:26.079Z,3.369
2023-03-06T16:08:27.266Z,6.598
2023-03-06T16:10:28.286Z,11.512
2023-03-06T16:12:30.051Z,8.704
2023-03-06T16:14:31.114Z,8.143
2023-03-06T16:18:33.240Z,6.318
2023-03-06T16:20:34.439Z,6.318
2023-03-06T16:22:36.191Z,5.335
2023-03-06T16:24:37.310Z,5.896
2023-03-06T16:26:38.875Z,8.564
2023-03-06T16:28:40.086Z,6.458
2023-03-06T16:30:41.708Z,8.143
2023-03-06T16:32:42.897Z,12.495
2023-03-06T16:34:44.613Z,5.616
2023-03-06T16:36:45.626Z,6.598
2023-03-06T16:38:47.199Z,5.475
2023-03-06T16:40:48.251Z,4.071
2023-03-06T16:42:49.686Z,6.739
2023-03-06T16:44:51.338Z,6.458
2023-03-06T16:46:53.018Z,9.828
2023-03-06T16:50:55.534Z,11.232
2023-03-06T16:52:56.749Z,8.704
2023-03-06T16:54:58.080Z,7.16
2023-03-06T16:56:59.417Z,8.985
2023-03-06T16:59:01.301Z,6.879
2023-03-06T17:01:02.808Z,10.951
2023-03-06T17:03:03.665Z,4.071
2023-03-06T17:05:05.292Z,7.722
2023-03-06T17:07:06.797Z,6.879
2023-03-06T17:09:08.415Z,9.406
2023-03-06T17:11:09.954Z,4.071
2023-03-06T17:13:11.926Z,4.212
2023-03-06T17:15:12.995Z,6.879
2023-03-06T17:17:14.624Z,9.266
2023-03-06T17:19:16.555Z,1.965
2023-03-06T17:23:18.913Z,8.424
2023-03-06T17:25:20.012Z,5.756
2023-03-06T17:27:21.928Z,9.968
2023-03-06T17:29:23.796Z,6.318
2023-03-06T17:33:26.703Z,2.527
2023-03-06T17:35:28.312Z,8.002
2023-03-06T17:37:29.599Z,7.441
2023-03-06T17:39:31.281Z,5.054
2023-03-06T17:41:32.838Z,5.756
2023-03-06T17:43:33.867Z,4.492
2023-03-06T17:45:35.846Z,5.475
2023-03-06T17:47:37.009Z,5.616
2023-03-06T17:49:39.002Z,7.16
2023-03-06T17:51:40.756Z,11.372
2023-03-06T17:53:42.120Z,3.79
2023-03-06T17:55:43.647Z,5.896
2023-03-06T17:57:44.636Z,6.598
2023-03-06T17:59:46.111Z,5.896
2023-03-06T18:01:47.809Z,5.335
2023-03-06T18:05:50.800Z,6.598
2023-03-06T18:07:52.420Z,5.896
2023-03-06T18:09:53.499Z,5.335
2023-03-06T18:11:55.121Z,9.687
2023-03-06T18:15:58.459Z,4.492
2023-03-06T18:17:59.945Z,5.194
2023-03-06T18:20:01.693Z,5.896
2023-03-06T18:22:03.178Z,4.071
2023-03-06T18:24:04.634Z,6.177
2023-03-06T18:26:05.799Z,4.633
2023-03-06T18:28:06.935Z,3.088
2023-03-06T18:30:08.022Z,3.51
2023-03-06T18:32:09.650Z,5.194
2023-03-06T18:34:10.746Z,5.475
2023-03-06T18:36:11.884Z,6.879
2023-03-06T18:38:13.824Z,4.352
2023-03-06T18:40:15.079Z,8.143
2023-03-06T18:42:17.038Z,6.879
2023-03-06T18:44:18.687Z,5.896
2023-03-06T18:46:20.557Z,6.318
2023-03-06T18:48:22.276Z,5.616
2023-03-06T18:50:23.960Z,5.335
2023-03-06T18:52:25.207Z,3.79
2023-03-06T18:54:26.636Z,4.212
2023-03-06T18:56:27.951Z,5.756
2023-03-06T18:58:29.068Z,2.948
2023-03-06T19:00:30.792Z,5.335
2023-03-06T19:02:31.937Z,3.931
2023-03-06T19:04:33.138Z,4.212
2023-03-06T19:06:34.215Z,6.739
2023-03-06T19:08:35.463Z,13.338
2023-03-06T19:10:36.950Z,3.65
2023-03-06T19:12:38.880Z,6.177
2023-03-06T19:14:40.582Z,4.352
2023-03-06T19:16:41.987Z,6.037
2023-03-06T19:18:43.359Z,1.965
2023-03-06T19:20:44.616Z,3.369
2023-03-06T19:22:45.748Z,6.318
2023-03-06T19:24:47.304Z,5.335
2023-03-06T19:26:48.484Z,6.177
2023-03-06T19:28:49.859Z,1.404
2023-03-06T19:30:51.297Z,4.914
2023-03-06T19:32:53.082Z,7.722
2023-03-06T19:34:54.815Z,6.879
2023-03-06T19:36:56.484Z,8.143
2023-03-06T19:38:58.318Z,8.143
2023-03-06T19:40:59.673Z,7.02
2023-03-06T19:43:00.807Z,6.037
2023-03-06T19:47:03.469Z,12.355
2023-03-06T19:49:04.736Z,6.177
2023-03-06T19:51:06.246Z,5.616
2023-03-06T19:53:07.386Z,8.845
2023-03-06T19:57:10.338Z,7.16
2023-03-06T19:59:11.524Z,7.722
2023-03-06T20:01:13.060Z,5.616
2023-03-06T20:03:14.514Z,6.739
2023-03-06T20:05:16.040Z,9.828
2023-03-06T20:09:18.465Z,6.037
2023-03-06T20:11:19.741Z,2.808
2023-03-06T20:13:21.255Z,5.335
2023-03-06T20:15:22.338Z,9.547
2023-03-06T20:17:24.259Z,7.16
2023-03-06T20:19:25.632Z,6.739
2023-03-06T20:21:27.626Z,7.581
2023-03-06T20:23:29.271Z,6.879
2023-03-06T20:25:31.169Z,7.581
2023-03-06T20:29:34.240Z,6.598
2023-03-06T20:31:35.720Z,6.037
2023-03-06T20:33:37.045Z,5.756
2023-03-06T20:35:38.954Z,8.002
2023-03-06T20:39:42.373Z,3.51
2023-03-06T20:41:44.030Z,5.896
2023-03-06T20:43:45.288Z,7.16
2023-03-06T20:45:46.419Z,11.232
2023-03-06T20:47:47.744Z,9.126
2023-03-06T20:49:49.221Z,7.722
2023-03-06T20:51:50.357Z,4.492
2023-03-06T20:53:52.227Z,6.037
2023-03-06T20:55:54.063Z,2.948
2023-03-06T20:57:55.678Z,2.948
2023-03-06T21:01:59.371Z,2.386
2023-03-06T21:04:00.424Z,5.194
2023-03-06T21:06:01.984Z,8.002
2023-03-06T21:08:03.778Z,5.054
2023-03-06T21:12:06.508Z,5.194
2023-03-06T21:14:08.323Z,5.616
2023-03-06T21:16:09.757Z,4.914
2023-03-06T21:18:11.532Z,5.335
2023-03-06T21:22:14.144Z,8.564
2023-03-06T21:24:16.033Z,8.283
2023-03-06T21:26:17.833Z,2.106
2023-03-06T21:28:19.001Z,5.054
2023-03-06T21:30:20.158Z,1.544
2023-03-06T21:32:21.644Z,3.79
2023-03-06T21:34:22.639Z,7.16
2023-03-06T21:36:23.993Z,4.352
2023-03-06T21:38:25.812Z,1.544
2023-03-06T21:40:27.105Z,5.475
2023-03-06T21:42:28.787Z,6.177
2023-03-06T21:44:30.105Z,4.352
2023-03-06T21:46:31.144Z,2.948
2023-03-06T21:48:32.851Z,5.756
2023-03-06T21:50:34.671Z,1.965
2023-03-06T21:52:35.912Z,5.335
2023-03-06T21:54:37.613Z,4.071
2023-03-06T21:56:39.505Z,1.123
2023-03-06T21:58:41.043Z,4.492
2023-03-06T22:00:42.960Z,4.212
2023-03-06T22:02:44.985Z,6.458
2023-03-06T22:03:28.901Z,4.773
2023-03-06T22:05:30.136Z,3.51
2023-03-06T22:07:31.440Z,3.369
2023-03-06T22:09:33.366Z,2.527
2023-03-06T22:11:34.961Z,6.879
2023-03-06T22:13:35.996Z,1.404
2023-03-06T22:15:37.521Z,2.246
2023-03-06T22:17:39.317Z,3.088
2023-03-06T22:19:41.098Z,2.667
2023-03-06T22:21:42.967Z,3.79
2023-03-06T22:23:44.984Z,5.756
2023-03-06T22:25:46.621Z,4.352
2023-03-06T22:27:48.442Z,7.02
2023-03-06T22:29:50.302Z,4.773
2023-03-06T22:31:51.754Z,3.51
2023-03-06T22:33:53.106Z,2.667
2023-03-06T22:35:54.257Z,4.212
2023-03-06T22:37:55.373Z,5.054
2023-03-06T22:39:56.469Z,2.106
2023-03-06T22:41:57.596Z,5.756
2023-03-06T22:43:59.254Z,4.492
2023-03-06T22:46:01.202Z,6.037
2023-03-06T22:48:12.146Z,7.3
2023-03-06T22:50:04.819Z,2.246
2023-03-06T22:52:05.880Z,5.194
2023-03-06T22:54:07.209Z,6.037
2023-03-06T22:56:08.349Z,4.914
2023-03-06T22:58:10.003Z,5.475
2023-03-06T23:00:11.935Z,4.914
2023-03-06T23:02:13.435Z,3.51
2023-03-06T23:04:14.837Z,2.948
2023-03-06T23:06:15.973Z,6.318
2023-03-06T23:08:17.032Z,3.79
2023-03-06T23:10:18.925Z,5.335
2023-03-06T23:12:20.532Z,2.948
2023-03-06T23:14:21.913Z,9.828
2023-03-06T23:16:23.222Z,6.177
2023-03-06T23:18:24.559Z,3.931
2023-03-06T23:20:25.925Z,4.352
2023-03-06T23:22:27.737Z,9.266
2023-03-06T23:24:29.422Z,4.071
2023-03-06T23:26:31.058Z,5.335
2023-03-06T23:30:34.715Z,7.441
2023-03-06T23:32:36.536Z,6.598
2023-03-06T23:34:37.559Z,4.212
2023-03-06T23:36:38.923Z,3.931
2023-03-06T23:40:42.456Z,10.249
2023-03-06T23:42:43.900Z,6.318
2023-03-06T23:44:45.176Z,6.598
2023-03-06T23:46:46.962Z,7.3
2023-03-06T23:48:48.645Z,3.65
2023-03-06T23:50:50.594Z,4.352
2023-03-06T23:52:52.121Z,5.896
2023-03-06T23:54:54.007Z,4.352
2023-03-06T23:56:55.613Z,9.126
2023-03-06T23:58:57.048Z,8.424
